Portada
METAR-TAF:

METAR-TAF

Aeropuertos :

Bou Saâda, Argelia

latitud: 35-20N, longitud: 004-12E, altitud: 461 m

Observación

El informe se hizo hace 10 horas y 4 minutos, a las 18:00 UTC
Viento 8 kt del este-noreste
Temperatura 40°C
Humedad 10%
Presión 1014 hPa
Visibilidad: 8000 m
Escasas nubes a una altura de 3000 ft

METAR: DAAD 291800Z 07008KT 8000 FEW030 40/03 Q1014

Hora: 05:04 (04:04 UTC)

Pronóstico

El informe se hizo hace 11 horas y 4 minutos, a las 17:00 UTC
Pronóstico válido del 29 a las 18 UTC al 30 a las 03 UTC
Viento 8 kt del este
Visibilidad: 8000 m
Escasas nubes a una altura de 3000 ft

TAF: DAAD 291700Z 2918/3003 08008KT 8000 FEW030

Observaciones y pronósticos meteorológicos de más de 4000 aeropuertos (mensajes METAR y TAF).

Los puntos amarillos y rojos representan las estaciones disponibles.

Ponga el ratón en el punto deseado para ver el nombre de la estación.

Haga clic para ver las observaciones y los pronósticos meteorológicos.

Para cambiar el mapa : haga clic en los botones verdes con una cruz de color negro para hacer un zoom, en el botón verde con un guión para alejar o en las flechas verdes para mapas adyacentes.


METAR-TAF: